sensor_id;sensor_type;location;lat;lon;timestamp;temperature;humidity
17938;DHT22;16051;53.024;8.630;2022-08-04T00:02:58;21.90;99.90
17938;DHT22;16051;53.024;8.630;2022-08-04T00:07:15;21.90;99.90
17938;DHT22;16051;53.024;8.630;2022-08-04T00:11:20;21.80;99.90
17938;DHT22;16051;53.024;8.630;2022-08-04T00:15:25;21.70;99.90
17938;DHT22;16051;53.024;8.630;2022-08-04T00:19:32;21.70;99.90
17938;DHT22;16051;53.024;8.630;2022-08-04T00:23:43;21.60;99.90
17938;DHT22;16051;53.024;8.630;2022-08-04T00:27:46;21.50;99.90
17938;DHT22;16051;53.024;8.630;2022-08-04T00:31:49;21.50;99.90
17938;DHT22;16051;53.024;8.630;2022-08-04T00:35:53;21.40;99.90
17938;DHT22;16051;53.024;8.630;2022-08-04T00:39:58;21.40;99.90
17938;DHT22;16051;53.024;8.630;2022-08-04T00:44:16;21.30;99.90
17938;DHT22;16051;53.024;8.630;2022-08-04T00:48:40;21.30;99.90
17938;DHT22;16051;53.024;8.630;2022-08-04T00:53:06;21.20;99.90
17938;DHT22;16051;53.024;8.630;2022-08-04T00:57:26;21.20;99.90
17938;DHT22;16051;53.024;8.630;2022-08-04T01:01:49;21.10;99.90
17938;DHT22;16051;53.024;8.630;2022-08-04T01:06:05;21.10;99.90
17938;DHT22;16051;53.024;8.630;2022-08-04T01:10:21;21.00;99.90
17938;DHT22;16051;53.024;8.630;2022-08-04T01:14:54;21.00;99.90
17938;DHT22;16051;53.024;8.630;2022-08-04T01:19:10;20.90;99.90
17938;DHT22;16051;53.024;8.630;2022-08-04T01:23:49;20.90;99.90
17938;DHT22;16051;53.024;8.630;2022-08-04T01:28:28;20.90;99.90
17938;DHT22;16051;53.024;8.630;2022-08-04T01:32:39;20.80;99.90
17938;DHT22;16051;53.024;8.630;2022-08-04T01:36:58;20.70;99.90
17938;DHT22;16051;53.024;8.630;2022-08-04T01:41:06;20.70;99.90
17938;DHT22;16051;53.024;8.630;2022-08-04T01:45:11;20.70;99.90
17938;DHT22;16051;53.024;8.630;2022-08-04T01:49:16;20.60;99.90
17938;DHT22;16051;53.024;8.630;2022-08-04T01:53:30;20.60;99.90
17938;DHT22;16051;53.024;8.630;2022-08-04T01:57:35;20.50;99.90
17938;DHT22;16051;53.024;8.630;2022-08-04T02:01:42;20.50;99.90
17938;DHT22;16051;53.024;8.630;2022-08-04T02:05:47;20.50;99.90
17938;DHT22;16051;53.024;8.630;2022-08-04T02:10:00;20.40;99.90
17938;DHT22;16051;53.024;8.630;2022-08-04T02:14:13;20.50;99.90
17938;DHT22;16051;53.024;8.630;2022-08-04T02:18:50;20.40;99.90
17938;DHT22;16051;53.024;8.630;2022-08-04T02:23:05;20.40;99.90
17938;DHT22;16051;53.024;8.630;2022-08-04T02:27:10;20.40;99.90
17938;DHT22;16051;53.024;8.630;2022-08-04T02:31:24;20.30;99.90
17938;DHT22;16051;53.024;8.630;2022-08-04T02:35:35;20.30;99.90
17938;DHT22;16051;53.024;8.630;2022-08-04T02:39:43;20.30;99.90
17938;DHT22;16051;53.024;8.630;2022-08-04T02:43:47;20.20;99.90
17938;DHT22;16051;53.024;8.630;2022-08-04T02:47:52;20.20;99.90
17938;DHT22;16051;53.024;8.630;2022-08-04T02:51:56;20.10;99.90
17938;DHT22;16051;53.024;8.630;2022-08-04T02:56:02;20.10;99.90
17938;DHT22;16051;53.024;8.630;2022-08-04T03:00:09;20.10;99.90
17938;DHT22;16051;53.024;8.630;2022-08-04T03:04:43;20.10;99.90
17938;DHT22;16051;53.024;8.630;2022-08-04T03:09:24;20.10;99.90
17938;DHT22;16051;53.024;8.630;2022-08-04T03:13:58;20.00;99.90
17938;DHT22;16051;53.024;8.630;2022-08-04T03:19:03;20.00;99.90
17938;DHT22;16051;53.024;8.630;2022-08-04T03:28:46;19.90;99.90
17938;DHT22;16051;53.024;8.630;2022-08-04T03:33:28;19.90;99.90
17938;DHT22;16051;53.024;8.630;2022-08-04T03:38:19;19.80;99.90
17938;DHT22;16051;53.024;8.630;2022-08-04T03:48:00;19.70;99.90
17938;DHT22;16051;53.024;8.630;2022-08-04T03:52:50;19.70;99.90
17938;DHT22;16051;53.024;8.630;2022-08-04T03:57:29;19.70;99.90
17938;DHT22;16051;53.024;8.630;2022-08-04T04:02:20;19.60;99.90
17938;DHT22;16051;53.024;8.630;2022-08-04T04:06:56;19.60;99.90
17938;DHT22;16051;53.024;8.630;2022-08-04T04:11:49;19.70;99.90
17938;DHT22;16051;53.024;8.630;2022-08-04T04:16:28;19.70;99.90
17938;DHT22;16051;53.024;8.630;2022-08-04T04:21:04;19.60;99.90
17938;DHT22;16051;53.024;8.630;2022-08-04T04:25:35;19.60;99.90
17938;DHT22;16051;53.024;8.630;2022-08-04T04:30:02;19.70;99.90
17938;DHT22;16051;53.024;8.630;2022-08-04T04:34:43;19.70;99.90
17938;DHT22;16051;53.024;8.630;2022-08-04T04:39:00;19.80;99.90
17938;DHT22;16051;53.024;8.630;2022-08-04T04:43:23;19.90;99.90
17938;DHT22;16051;53.024;8.630;2022-08-04T04:47:53;20.00;99.90
17938;DHT22;16051;53.024;8.630;2022-08-04T04:52:07;20.10;99.90
17938;DHT22;16051;53.024;8.630;2022-08-04T04:56:24;20.10;99.90
17938;DHT22;16051;53.024;8.630;2022-08-04T05:00:41;20.20;99.90
17938;DHT22;16051;53.024;8.630;2022-08-04T05:10:08;20.30;99.90
17938;DHT22;16051;53.024;8.630;2022-08-04T05:14:26;20.40;99.90
17938;DHT22;16051;53.024;8.630;2022-08-04T05:18:34;20.50;99.90
17938;DHT22;16051;53.024;8.630;2022-08-04T05:22:44;20.50;99.90
17938;DHT22;16051;53.024;8.630;2022-08-04T05:26:56;20.60;99.90
17938;DHT22;16051;53.024;8.630;2022-08-04T05:31:09;20.70;99.90
17938;DHT22;16051;53.024;8.630;2022-08-04T05:35:21;20.70;99.90
17938;DHT22;16051;53.024;8.630;2022-08-04T05:39:42;20.80;99.90
17938;DHT22;16051;53.024;8.630;2022-08-04T05:43:48;20.90;99.90
17938;DHT22;16051;53.024;8.630;2022-08-04T05:47:55;20.90;99.90
17938;DHT22;16051;53.024;8.630;2022-08-04T05:52:00;21.00;99.90
17938;DHT22;16051;53.024;8.630;2022-08-04T05:56:06;21.10;99.90
17938;DHT22;16051;53.024;8.630;2022-08-04T06:00:10;21.10;99.90
17938;DHT22;16051;53.024;8.630;2022-08-04T06:04:12;21.20;99.90
17938;DHT22;16051;53.024;8.630;2022-08-04T06:08:18;21.30;99.90
17938;DHT22;16051;53.024;8.630;2022-08-04T06:12:24;21.30;99.90
17938;DHT22;16051;53.024;8.630;2022-08-04T06:16:36;21.40;99.90
17938;DHT22;16051;53.024;8.630;2022-08-04T06:20:42;21.60;99.90
17938;DHT22;16051;53.024;8.630;2022-08-04T06:24:54;21.80;99.90
17938;DHT22;16051;53.024;8.630;2022-08-04T06:28:59;21.90;99.90
17938;DHT22;16051;53.024;8.630;2022-08-04T06:33:03;22.00;99.90
17938;DHT22;16051;53.024;8.630;2022-08-04T06:37:24;22.20;99.90
17938;DHT22;16051;53.024;8.630;2022-08-04T06:41:29;22.30;99.90
17938;DHT22;16051;53.024;8.630;2022-08-04T06:45:35;22.50;99.90
17938;DHT22;16051;53.024;8.630;2022-08-04T06:49:41;22.70;99.90
17938;DHT22;16051;53.024;8.630;2022-08-04T06:53:44;22.80;99.90
17938;DHT22;16051;53.024;8.630;2022-08-04T06:57:47;22.90;99.90
17938;DHT22;16051;53.024;8.630;2022-08-04T07:01:51;23.00;99.90
17938;DHT22;16051;53.024;8.630;2022-08-04T07:05:55;23.20;99.90
17938;DHT22;16051;53.024;8.630;2022-08-04T07:09:58;23.30;99.90
17938;DHT22;16051;53.024;8.630;2022-08-04T07:14:04;23.50;99.90
17938;DHT22;16051;53.024;8.630;2022-08-04T07:18:07;23.70;99.90
17938;DHT22;16051;53.024;8.630;2022-08-04T07:22:10;23.80;99.90
17938;DHT22;16051;53.024;8.630;2022-08-04T07:26:13;23.90;99.90
17938;DHT22;16051;53.024;8.630;2022-08-04T07:30:18;24.30;99.90
17938;DHT22;16051;53.024;8.630;2022-08-04T07:34:21;24.60;99.90
17938;DHT22;16051;53.024;8.630;2022-08-04T07:38:24;24.80;99.90
17938;DHT22;16051;53.024;8.630;2022-08-04T07:42:27;24.80;99.90
17938;DHT22;16051;53.024;8.630;2022-08-04T07:46:31;25.00;99.90
17938;DHT22;16051;53.024;8.630;2022-08-04T07:50:33;25.00;99.90
17938;DHT22;16051;53.024;8.630;2022-08-04T07:54:38;25.30;99.90
17938;DHT22;16051;53.024;8.630;2022-08-04T07:58:43;25.70;99.90
17938;DHT22;16051;53.024;8.630;2022-08-04T08:02:49;26.30;99.90
17938;DHT22;16051;53.024;8.630;2022-08-04T08:06:53;26.70;99.90
17938;DHT22;16051;53.024;8.630;2022-08-04T08:10:55;27.10;99.90
17938;DHT22;16051;53.024;8.630;2022-08-04T08:14:58;27.20;99.90
17938;DHT22;16051;53.024;8.630;2022-08-04T08:19:03;27.60;99.90
17938;DHT22;16051;53.024;8.630;2022-08-04T08:23:07;27.90;99.90
17938;DHT22;16051;53.024;8.630;2022-08-04T08:27:09;28.10;99.90
17938;DHT22;16051;53.024;8.630;2022-08-04T08:31:12;28.60;99.90
17938;DHT22;16051;53.024;8.630;2022-08-04T08:35:15;28.70;99.90
17938;DHT22;16051;53.024;8.630;2022-08-04T08:39:23;28.60;99.90
17938;DHT22;16051;53.024;8.630;2022-08-04T08:43:43;28.50;99.90
17938;DHT22;16051;53.024;8.630;2022-08-04T08:48:32;29.00;99.90
17938;DHT22;16051;53.024;8.630;2022-08-04T08:53:07;29.50;99.90
17938;DHT22;16051;53.024;8.630;2022-08-04T08:57:41;29.70;99.90
17938;DHT22;16051;53.024;8.630;2022-08-04T09:02:01;29.30;99.90
17938;DHT22;16051;53.024;8.630;2022-08-04T09:06:46;29.50;99.90
17938;DHT22;16051;53.024;8.630;2022-08-04T09:11:01;30.10;99.90
17938;DHT22;16051;53.024;8.630;2022-08-04T09:15:14;30.10;99.90
17938;DHT22;16051;53.024;8.630;2022-08-04T09:19:22;30.10;99.90
17938;DHT22;16051;53.024;8.630;2022-08-04T09:23:34;30.70;99.90
17938;DHT22;16051;53.024;8.630;2022-08-04T09:27:51;31.30;99.90
17938;DHT22;16051;53.024;8.630;2022-08-04T09:32:01;31.50;99.90
17938;DHT22;16051;53.024;8.630;2022-08-04T09:36:13;32.10;99.90
17938;DHT22;16051;53.024;8.630;2022-08-04T09:40:26;32.60;99.90
17938;DHT22;16051;53.024;8.630;2022-08-04T09:44:43;33.10;98.40
17938;DHT22;16051;53.024;8.630;2022-08-04T09:48:55;33.30;97.60
17938;DHT22;16051;53.024;8.630;2022-08-04T09:53:15;33.90;97.10
17938;DHT22;16051;53.024;8.630;2022-08-04T09:57:40;34.90;95.00
17938;DHT22;16051;53.024;8.630;2022-08-04T10:01:56;35.10;93.90
17938;DHT22;16051;53.024;8.630;2022-08-04T10:06:09;35.30;90.90
17938;DHT22;16051;53.024;8.630;2022-08-04T10:10:33;35.50;90.50
17938;DHT22;16051;53.024;8.630;2022-08-04T10:14:47;35.70;87.80
17938;DHT22;16051;53.024;8.630;2022-08-04T10:19:04;35.70;83.40
17938;DHT22;16051;53.024;8.630;2022-08-04T10:23:22;36.30;78.50
17938;DHT22;16051;53.024;8.630;2022-08-04T10:27:39;36.30;76.70
17938;DHT22;16051;53.024;8.630;2022-08-04T10:31:56;36.70;73.80
17938;DHT22;16051;53.024;8.630;2022-08-04T10:36:09;36.70;71.00
17938;DHT22;16051;53.024;8.630;2022-08-04T10:40:16;36.70;70.10
17938;DHT22;16051;53.024;8.630;2022-08-04T10:44:51;37.30;65.90
17938;DHT22;16051;53.024;8.630;2022-08-04T10:49:03;37.40;67.20
17938;DHT22;16051;53.024;8.630;2022-08-04T10:53:16;37.90;64.10
17938;DHT22;16051;53.024;8.630;2022-08-04T10:57:27;37.90;65.20
17938;DHT22;16051;53.024;8.630;2022-08-04T11:01:38;37.70;62.30
17938;DHT22;16051;53.024;8.630;2022-08-04T11:06:00;38.30;61.30
17938;DHT22;16051;53.024;8.630;2022-08-04T11:10:05;38.10;59.10
17938;DHT22;16051;53.024;8.630;2022-08-04T11:14:11;38.40;59.30
17938;DHT22;16051;53.024;8.630;2022-08-04T11:18:24;39.10;60.10
17938;DHT22;16051;53.024;8.630;2022-08-04T11:22:38;39.20;59.10
17938;DHT22;16051;53.024;8.630;2022-08-04T11:26:49;39.00;57.50
17938;DHT22;16051;53.024;8.630;2022-08-04T11:31:02;38.80;56.30
17938;DHT22;16051;53.024;8.630;2022-08-04T11:35:09;39.30;56.50
17938;DHT22;16051;53.024;8.630;2022-08-04T11:39:23;39.40;56.30
17938;DHT22;16051;53.024;8.630;2022-08-04T11:43:38;39.30;55.40
17938;DHT22;16051;53.024;8.630;2022-08-04T11:47:48;39.20;53.00
17938;DHT22;16051;53.024;8.630;2022-08-04T11:52:01;39.20;51.90
17938;DHT22;16051;53.024;8.630;2022-08-04T11:56:09;40.00;53.70
17938;DHT22;16051;53.024;8.630;2022-08-04T12:00:16;39.80;50.10
17938;DHT22;16051;53.024;8.630;2022-08-04T12:04:27;39.80;51.30
17938;DHT22;16051;53.024;8.630;2022-08-04T12:08:52;39.50;49.90
17938;DHT22;16051;53.024;8.630;2022-08-04T12:13:08;40.50;50.70
17938;DHT22;16051;53.024;8.630;2022-08-04T12:17:23;39.90;52.00
17938;DHT22;16051;53.024;8.630;2022-08-04T12:21:34;39.30;50.00
17938;DHT22;16051;53.024;8.630;2022-08-04T12:25:45;38.50;51.50
17938;DHT22;16051;53.024;8.630;2022-08-04T12:29:53;39.50;52.70
17938;DHT22;16051;53.024;8.630;2022-08-04T12:34:13;40.00;51.20
17938;DHT22;16051;53.024;8.630;2022-08-04T12:38:20;40.50;48.20
17938;DHT22;16051;53.024;8.630;2022-08-04T12:42:35;41.00;47.50
17938;DHT22;16051;53.024;8.630;2022-08-04T12:46:50;40.30;46.90
17938;DHT22;16051;53.024;8.630;2022-08-04T12:50:56;40.00;47.40
17938;DHT22;16051;53.024;8.630;2022-08-04T12:55:04;38.40;49.70
17938;DHT22;16051;53.024;8.630;2022-08-04T12:59:08;37.50;49.70
17938;DHT22;16051;53.024;8.630;2022-08-04T13:03:37;38.60;51.20
17938;DHT22;16051;53.024;8.630;2022-08-04T13:07:47;39.30;47.90
17938;DHT22;16051;53.024;8.630;2022-08-04T13:11:54;39.80;48.00
17938;DHT22;16051;53.024;8.630;2022-08-04T13:16:03;39.80;47.00
17938;DHT22;16051;53.024;8.630;2022-08-04T13:20:07;39.20;48.80
17938;DHT22;16051;53.024;8.630;2022-08-04T13:24:15;38.90;51.20
17938;DHT22;16051;53.024;8.630;2022-08-04T13:28:21;40.10;51.20
17938;DHT22;16051;53.024;8.630;2022-08-04T13:32:34;39.00;54.50
17938;DHT22;16051;53.024;8.630;2022-08-04T13:36:37;38.20;59.60
17938;DHT22;16051;53.024;8.630;2022-08-04T13:41:00;37.40;63.50
17938;DHT22;16051;53.024;8.630;2022-08-04T13:45:06;36.80;65.30
17938;DHT22;16051;53.024;8.630;2022-08-04T13:49:14;35.80;66.70
17938;DHT22;16051;53.024;8.630;2022-08-04T13:53:18;35.40;68.60
17938;DHT22;16051;53.024;8.630;2022-08-04T13:57:28;34.80;71.10
17938;DHT22;16051;53.024;8.630;2022-08-04T14:01:34;34.30;72.80
17938;DHT22;16051;53.024;8.630;2022-08-04T14:05:39;33.80;74.70
17938;DHT22;16051;53.024;8.630;2022-08-04T14:09:43;33.50;76.10
17938;DHT22;16051;53.024;8.630;2022-08-04T14:13:47;33.10;77.40
17938;DHT22;16051;53.024;8.630;2022-08-04T14:17:49;32.40;76.70
17938;DHT22;16051;53.024;8.630;2022-08-04T14:21:53;32.10;80.80
17938;DHT22;16051;53.024;8.630;2022-08-04T14:25:55;30.90;88.60
17938;DHT22;16051;53.024;8.630;2022-08-04T14:34:38;29.20;97.20
17938;DHT22;16051;53.024;8.630;2022-08-04T14:38:45;29.10;99.20
17938;DHT22;16051;53.024;8.630;2022-08-04T14:42:49;29.90;99.60
17938;DHT22;16051;53.024;8.630;2022-08-04T14:46:59;30.30;99.70
17938;DHT22;16051;53.024;8.630;2022-08-04T14:51:02;32.50;93.40
17938;DHT22;16051;53.024;8.630;2022-08-04T14:55:18;30.70;96.90
17938;DHT22;16051;53.024;8.630;2022-08-04T14:59:23;29.90;99.40
17938;DHT22;16051;53.024;8.630;2022-08-04T15:03:30;28.60;99.90
17938;DHT22;16051;53.024;8.630;2022-08-04T15:07:41;28.00;99.90
17938;DHT22;16051;53.024;8.630;2022-08-04T15:11:43;27.70;99.90
17938;DHT22;16051;53.024;8.630;2022-08-04T15:15:47;27.50;99.90
17938;DHT22;16051;53.024;8.630;2022-08-04T15:19:51;27.40;99.90
17938;DHT22;16051;53.024;8.630;2022-08-04T15:24:03;27.20;99.90
17938;DHT22;16051;53.024;8.630;2022-08-04T15:28:09;27.20;99.90
17938;DHT22;16051;53.024;8.630;2022-08-04T15:32:14;27.00;99.90
17938;DHT22;16051;53.024;8.630;2022-08-04T15:36:30;27.00;99.90
17938;DHT22;16051;53.024;8.630;2022-08-04T15:40:44;26.90;99.90
17938;DHT22;16051;53.024;8.630;2022-08-04T15:45:13;27.00;99.90
17938;DHT22;16051;53.024;8.630;2022-08-04T15:49:21;27.50;99.90
17938;DHT22;16051;53.024;8.630;2022-08-04T15:53:26;27.10;99.90
17938;DHT22;16051;53.024;8.630;2022-08-04T15:57:55;26.80;99.90
17938;DHT22;16051;53.024;8.630;2022-08-04T16:02:34;26.80;99.90
17938;DHT22;16051;53.024;8.630;2022-08-04T16:06:43;29.70;99.90
17938;DHT22;16051;53.024;8.630;2022-08-04T16:10:48;28.10;99.90
17938;DHT22;16051;53.024;8.630;2022-08-04T16:14:51;27.50;99.90
17938;DHT22;16051;53.024;8.630;2022-08-04T16:19:08;27.50;99.90
17938;DHT22;16051;53.024;8.630;2022-08-04T16:23:36;27.50;99.90
17938;DHT22;16051;53.024;8.630;2022-08-04T16:27:51;27.30;99.90
17938;DHT22;16051;53.024;8.630;2022-08-04T16:32:21;27.20;99.90
17938;DHT22;16051;53.024;8.630;2022-08-04T16:36:55;27.70;99.90
17938;DHT22;16051;53.024;8.630;2022-08-04T16:41:00;29.00;99.90
17938;DHT22;16051;53.024;8.630;2022-08-04T16:45:11;28.40;99.90
17938;DHT22;16051;53.024;8.630;2022-08-04T16:49:32;27.80;99.90
17938;DHT22;16051;53.024;8.630;2022-08-04T16:53:36;27.30;99.90
17938;DHT22;16051;53.024;8.630;2022-08-04T16:57:40;27.20;99.90
17938;DHT22;16051;53.024;8.630;2022-08-04T17:01:51;27.20;99.90
17938;DHT22;16051;53.024;8.630;2022-08-04T17:06:05;27.10;99.90
17938;DHT22;16051;53.024;8.630;2022-08-04T17:10:08;26.90;99.90
17938;DHT22;16051;53.024;8.630;2022-08-04T17:14:11;26.80;99.90
17938;DHT22;16051;53.024;8.630;2022-08-04T17:18:21;26.80;99.90
17938;DHT22;16051;53.024;8.630;2022-08-04T17:22:25;26.60;99.90
17938;DHT22;16051;53.024;8.630;2022-08-04T17:26:29;26.60;99.90
17938;DHT22;16051;53.024;8.630;2022-08-04T17:30:32;26.50;99.90
17938;DHT22;16051;53.024;8.630;2022-08-04T17:34:36;26.40;99.90
17938;DHT22;16051;53.024;8.630;2022-08-04T17:38:40;26.50;99.90
17938;DHT22;16051;53.024;8.630;2022-08-04T17:42:44;26.40;99.90
17938;DHT22;16051;53.024;8.630;2022-08-04T17:46:55;26.30;99.90
17938;DHT22;16051;53.024;8.630;2022-08-04T17:51:13;26.30;99.90
17938;DHT22;16051;53.024;8.630;2022-08-04T17:55:15;26.30;99.90
17938;DHT22;16051;53.024;8.630;2022-08-04T17:59:20;26.40;99.90
17938;DHT22;16051;53.024;8.630;2022-08-04T18:03:24;26.40;99.90
17938;DHT22;16051;53.024;8.630;2022-08-04T18:07:36;26.40;99.90
17938;DHT22;16051;53.024;8.630;2022-08-04T18:11:52;26.30;99.90
17938;DHT22;16051;53.024;8.630;2022-08-04T18:16:05;26.20;99.90
17938;DHT22;16051;53.024;8.630;2022-08-04T18:20:11;26.20;99.90
17938;DHT22;16051;53.024;8.630;2022-08-04T18:24:17;25.90;99.90
17938;DHT22;16051;53.024;8.630;2022-08-04T18:28:19;25.70;99.90
17938;DHT22;16051;53.024;8.630;2022-08-04T18:32:21;25.60;99.90
17938;DHT22;16051;53.024;8.630;2022-08-04T18:36:25;25.50;99.90
17938;DHT22;16051;53.024;8.630;2022-08-04T18:40:48;25.20;99.90
17938;DHT22;16051;53.024;8.630;2022-08-04T18:44:50;25.10;99.90
17938;DHT22;16051;53.024;8.630;2022-08-04T18:48:56;25.10;99.90
17938;DHT22;16051;53.024;8.630;2022-08-04T18:53:00;24.90;99.90
17938;DHT22;16051;53.024;8.630;2022-08-04T18:57:19;25.20;99.90
17938;DHT22;16051;53.024;8.630;2022-08-04T19:01:32;25.30;99.90
17938;DHT22;16051;53.024;8.630;2022-08-04T19:05:37;25.30;99.90
17938;DHT22;16051;53.024;8.630;2022-08-04T19:10:16;25.30;99.90
17938;DHT22;16051;53.024;8.630;2022-08-04T19:14:23;25.10;99.90
17938;DHT22;16051;53.024;8.630;2022-08-04T19:18:36;25.00;99.90
17938;DHT22;16051;53.024;8.630;2022-08-04T19:22:38;24.90;99.90
17938;DHT22;16051;53.024;8.630;2022-08-04T19:26:49;24.90;99.90
17938;DHT22;16051;53.024;8.630;2022-08-04T19:31:03;24.80;99.90
17938;DHT22;16051;53.024;8.630;2022-08-04T19:35:06;24.70;99.90
17938;DHT22;16051;53.024;8.630;2022-08-04T19:39:08;24.60;99.90
17938;DHT22;16051;53.024;8.630;2022-08-04T19:43:11;24.60;99.90
17938;DHT22;16051;53.024;8.630;2022-08-04T19:47:14;24.50;99.90
17938;DHT22;16051;53.024;8.630;2022-08-04T19:51:17;24.40;99.90
17938;DHT22;16051;53.024;8.630;2022-08-04T19:55:21;24.30;99.90
17938;DHT22;16051;53.024;8.630;2022-08-04T19:59:26;24.20;99.90
17938;DHT22;16051;53.024;8.630;2022-08-04T20:03:30;24.20;99.90
17938;DHT22;16051;53.024;8.630;2022-08-04T20:07:32;24.00;99.90
17938;DHT22;16051;53.024;8.630;2022-08-04T20:11:41;23.90;99.90
17938;DHT22;16051;53.024;8.630;2022-08-04T20:15:43;23.70;99.90
17938;DHT22;16051;53.024;8.630;2022-08-04T20:19:46;23.60;99.90
17938;DHT22;16051;53.024;8.630;2022-08-04T20:23:48;23.50;99.90
17938;DHT22;16051;53.024;8.630;2022-08-04T20:27:50;23.40;99.90
17938;DHT22;16051;53.024;8.630;2022-08-04T20:32:08;23.20;99.90
17938;DHT22;16051;53.024;8.630;2022-08-04T20:36:34;23.10;99.90
17938;DHT22;16051;53.024;8.630;2022-08-04T20:40:36;23.00;99.90
17938;DHT22;16051;53.024;8.630;2022-08-04T20:44:38;23.00;99.90
17938;DHT22;16051;53.024;8.630;2022-08-04T20:48:45;22.80;99.90
17938;DHT22;16051;53.024;8.630;2022-08-04T20:52:49;22.70;99.90
17938;DHT22;16051;53.024;8.630;2022-08-04T20:56:51;22.70;99.90
17938;DHT22;16051;53.024;8.630;2022-08-04T21:00:55;22.70;99.90
17938;DHT22;16051;53.024;8.630;2022-08-04T21:05:18;22.60;99.90
17938;DHT22;16051;53.024;8.630;2022-08-04T21:09:22;22.40;99.90
17938;DHT22;16051;53.024;8.630;2022-08-04T21:13:25;22.40;99.90
17938;DHT22;16051;53.024;8.630;2022-08-04T21:17:36;22.30;99.90
17938;DHT22;16051;53.024;8.630;2022-08-04T21:21:38;22.20;99.90
17938;DHT22;16051;53.024;8.630;2022-08-04T21:25:42;22.10;99.90
17938;DHT22;16051;53.024;8.630;2022-08-04T21:29:45;22.10;99.90
17938;DHT22;16051;53.024;8.630;2022-08-04T21:33:47;22.00;99.90
17938;DHT22;16051;53.024;8.630;2022-08-04T21:38:04;22.00;99.90
17938;DHT22;16051;53.024;8.630;2022-08-04T21:42:08;21.90;99.90
17938;DHT22;16051;53.024;8.630;2022-08-04T21:46:10;21.90;99.90
17938;DHT22;16051;53.024;8.630;2022-08-04T21:50:14;21.80;99.90
17938;DHT22;16051;53.024;8.630;2022-08-04T21:54:16;21.80;99.90
17938;DHT22;16051;53.024;8.630;2022-08-04T21:58:20;21.70;99.90
17938;DHT22;16051;53.024;8.630;2022-08-04T22:02:22;21.70;99.90
17938;DHT22;16051;53.024;8.630;2022-08-04T22:06:24;21.60;99.90
17938;DHT22;16051;53.024;8.630;2022-08-04T22:10:26;21.50;99.90
17938;DHT22;16051;53.024;8.630;2022-08-04T22:14:30;21.50;99.90
17938;DHT22;16051;53.024;8.630;2022-08-04T22:18:34;21.40;99.90
17938;DHT22;16051;53.024;8.630;2022-08-04T22:22:37;21.40;99.90
17938;DHT22;16051;53.024;8.630;2022-08-04T22:26:40;21.40;99.90
17938;DHT22;16051;53.024;8.630;2022-08-04T22:30:44;21.30;99.90
17938;DHT22;16051;53.024;8.630;2022-08-04T22:34:47;21.30;99.90
17938;DHT22;16051;53.024;8.630;2022-08-04T22:38:49;21.30;99.90
17938;DHT22;16051;53.024;8.630;2022-08-04T22:42:52;21.20;99.90
17938;DHT22;16051;53.024;8.630;2022-08-04T22:46:55;21.20;99.90
17938;DHT22;16051;53.024;8.630;2022-08-04T22:50:57;21.20;99.90
17938;DHT22;16051;53.024;8.630;2022-08-04T22:54:59;21.20;99.90
17938;DHT22;16051;53.024;8.630;2022-08-04T22:59:02;21.10;99.90
17938;DHT22;16051;53.024;8.630;2022-08-04T23:03:05;21.20;99.90
17938;DHT22;16051;53.024;8.630;2022-08-04T23:07:09;21.20;99.90
17938;DHT22;16051;53.024;8.630;2022-08-04T23:11:11;21.10;99.90
17938;DHT22;16051;53.024;8.630;2022-08-04T23:15:14;21.10;99.90
17938;DHT22;16051;53.024;8.630;2022-08-04T23:19:17;21.10;99.90
17938;DHT22;16051;53.024;8.630;2022-08-04T23:23:57;21.10;99.90
17938;DHT22;16051;53.024;8.630;2022-08-04T23:27:59;21.10;99.90
17938;DHT22;16051;53.024;8.630;2022-08-04T23:32:01;21.00;99.90
17938;DHT22;16051;53.024;8.630;2022-08-04T23:36:06;21.00;99.90
17938;DHT22;16051;53.024;8.630;2022-08-04T23:40:09;20.90;99.90
17938;DHT22;16051;53.024;8.630;2022-08-04T23:44:11;20.90;99.90
17938;DHT22;16051;53.024;8.630;2022-08-04T23:48:32;20.90;99.90
17938;DHT22;16051;53.024;8.630;2022-08-04T23:52:36;20.90;99.90
17938;DHT22;16051;53.024;8.630;2022-08-04T23:56:38;20.80;99.90
